sensor_id;sensor_type;location;lat;lon;timestamp;temperature;humidity
39219;DHT22;24934;52.752;6.964;2023-02-11T00:01:15;6.20;99.90
39219;DHT22;24934;52.752;6.964;2023-02-11T00:03:43;6.20;99.90
39219;DHT22;24934;52.752;6.964;2023-02-11T00:06:10;6.20;99.90
39219;DHT22;24934;52.752;6.964;2023-02-11T00:08:36;6.20;99.90
39219;DHT22;24934;52.752;6.964;2023-02-11T00:11:02;6.30;99.90
39219;DHT22;24934;52.752;6.964;2023-02-11T00:13:27;6.20;99.90
39219;DHT22;24934;52.752;6.964;2023-02-11T00:15:54;6.30;99.90
39219;DHT22;24934;52.752;6.964;2023-02-11T00:18:19;6.20;99.90
39219;DHT22;24934;52.752;6.964;2023-02-11T00:20:45;6.30;99.90
39219;DHT22;24934;52.752;6.964;2023-02-11T00:23:11;6.30;99.90
39219;DHT22;24934;52.752;6.964;2023-02-11T00:25:41;6.30;99.90
39219;DHT22;24934;52.752;6.964;2023-02-11T00:28:07;6.20;99.90
39219;DHT22;24934;52.752;6.964;2023-02-11T00:30:36;6.30;99.90
39219;DHT22;24934;52.752;6.964;2023-02-11T00:33:02;6.30;99.90
39219;DHT22;24934;52.752;6.964;2023-02-11T00:35:31;6.30;99.90
39219;DHT22;24934;52.752;6.964;2023-02-11T00:37:57;6.30;99.90
39219;DHT22;24934;52.752;6.964;2023-02-11T00:40:22;6.30;99.90
39219;DHT22;24934;52.752;6.964;2023-02-11T00:42:48;6.30;99.90
39219;DHT22;24934;52.752;6.964;2023-02-11T00:45:13;6.30;99.90
39219;DHT22;24934;52.752;6.964;2023-02-11T00:47:39;6.30;99.90
39219;DHT22;24934;52.752;6.964;2023-02-11T00:50:05;6.30;99.90
39219;DHT22;24934;52.752;6.964;2023-02-11T00:52:33;6.30;99.90
39219;DHT22;24934;52.752;6.964;2023-02-11T00:54:59;6.30;99.90
39219;DHT22;24934;52.752;6.964;2023-02-11T00:57:27;6.30;99.90
39219;DHT22;24934;52.752;6.964;2023-02-11T00:59:53;6.30;99.90
39219;DHT22;24934;52.752;6.964;2023-02-11T01:02:19;6.30;99.90
39219;DHT22;24934;52.752;6.964;2023-02-11T01:04:44;6.30;99.90
39219;DHT22;24934;52.752;6.964;2023-02-11T01:07:10;6.30;99.90
39219;DHT22;24934;52.752;6.964;2023-02-11T01:09:38;6.30;99.90
39219;DHT22;24934;52.752;6.964;2023-02-11T01:12:04;6.30;99.90
39219;DHT22;24934;52.752;6.964;2023-02-11T01:14:30;6.30;99.90
39219;DHT22;24934;52.752;6.964;2023-02-11T01:16:55;6.30;99.90
39219;DHT22;24934;52.752;6.964;2023-02-11T01:19:24;6.30;99.90
39219;DHT22;24934;52.752;6.964;2023-02-11T01:21:53;6.30;99.90
39219;DHT22;24934;52.752;6.964;2023-02-11T01:24:19;6.30;99.90
39219;DHT22;24934;52.752;6.964;2023-02-11T01:26:44;6.30;99.90
39219;DHT22;24934;52.752;6.964;2023-02-11T01:29:10;6.30;99.90
39219;DHT22;24934;52.752;6.964;2023-02-11T01:31:35;6.30;99.90
39219;DHT22;24934;52.752;6.964;2023-02-11T01:34:01;6.30;99.90
39219;DHT22;24934;52.752;6.964;2023-02-11T01:36:27;6.30;99.90
39219;DHT22;24934;52.752;6.964;2023-02-11T01:38:52;6.30;99.90
39219;DHT22;24934;52.752;6.964;2023-02-11T01:41:21;6.30;99.90
39219;DHT22;24934;52.752;6.964;2023-02-11T01:43:48;6.30;99.90
39219;DHT22;24934;52.752;6.964;2023-02-11T01:46:36;6.30;99.90
39219;DHT22;24934;52.752;6.964;2023-02-11T01:49:15;6.30;99.90
39219;DHT22;24934;52.752;6.964;2023-02-11T01:51:56;6.30;99.90
39219;DHT22;24934;52.752;6.964;2023-02-11T01:54:34;6.30;99.90
39219;DHT22;24934;52.752;6.964;2023-02-11T01:57:21;6.30;99.90
39219;DHT22;24934;52.752;6.964;2023-02-11T02:02:24;6.30;99.90
39219;DHT22;24934;52.752;6.964;2023-02-11T02:05:07;6.30;99.90
39219;DHT22;24934;52.752;6.964;2023-02-11T02:08:15;6.30;99.90
39219;DHT22;24934;52.752;6.964;2023-02-11T02:10:42;6.30;99.90
39219;DHT22;24934;52.752;6.964;2023-02-11T02:13:09;6.30;99.90
39219;DHT22;24934;52.752;6.964;2023-02-11T02:15:40;6.30;99.90
39219;DHT22;24934;52.752;6.964;2023-02-11T02:24:21;6.30;99.90
39219;DHT22;24934;52.752;6.964;2023-02-11T02:27:26;6.20;99.90
39219;DHT22;24934;52.752;6.964;2023-02-11T02:32:57;6.20;99.90
39219;DHT22;24934;52.752;6.964;2023-02-11T02:41:14;6.20;99.90
39219;DHT22;24934;52.752;6.964;2023-02-11T02:43:44;6.30;99.90
39219;DHT22;24934;52.752;6.964;2023-02-11T02:46:23;6.30;99.90
39219;DHT22;24934;52.752;6.964;2023-02-11T02:48:51;6.30;99.90
39219;DHT22;24934;52.752;6.964;2023-02-11T03:00:16;6.30;99.90
39219;DHT22;24934;52.752;6.964;2023-02-11T03:08:17;6.30;99.90
39219;DHT22;24934;52.752;6.964;2023-02-11T03:10:47;6.30;99.90
39219;DHT22;24934;52.752;6.964;2023-02-11T03:13:14;6.30;99.90
39219;DHT22;24934;52.752;6.964;2023-02-11T03:15:47;6.40;99.90
39219;DHT22;24934;52.752;6.964;2023-02-11T03:18:17;6.40;99.90
39219;DHT22;24934;52.752;6.964;2023-02-11T03:20:45;6.40;99.90
39219;DHT22;24934;52.752;6.964;2023-02-11T03:23:20;6.30;99.90
39219;DHT22;24934;52.752;6.964;2023-02-11T03:25:53;6.40;99.90
39219;DHT22;24934;52.752;6.964;2023-02-11T03:28:49;6.40;99.90
39219;DHT22;24934;52.752;6.964;2023-02-11T03:31:36;6.40;99.90
39219;DHT22;24934;52.752;6.964;2023-02-11T03:34:15;6.40;99.90
39219;DHT22;24934;52.752;6.964;2023-02-11T03:36:53;6.40;99.90
39219;DHT22;24934;52.752;6.964;2023-02-11T03:39:35;6.40;99.90
39219;DHT22;24934;52.752;6.964;2023-02-11T03:42:03;6.40;99.90
39219;DHT22;24934;52.752;6.964;2023-02-11T03:44:36;6.40;99.90
39219;DHT22;24934;52.752;6.964;2023-02-11T03:47:07;6.40;99.90
39219;DHT22;24934;52.752;6.964;2023-02-11T03:49:35;6.40;99.90
39219;DHT22;24934;52.752;6.964;2023-02-11T03:52:04;6.40;99.90
39219;DHT22;24934;52.752;6.964;2023-02-11T03:54:31;6.40;99.90
39219;DHT22;24934;52.752;6.964;2023-02-11T03:56:59;6.40;99.90
39219;DHT22;24934;52.752;6.964;2023-02-11T03:59:25;6.40;99.90
39219;DHT22;24934;52.752;6.964;2023-02-11T04:01:51;6.40;99.90
39219;DHT22;24934;52.752;6.964;2023-02-11T04:04:17;6.40;99.90
39219;DHT22;24934;52.752;6.964;2023-02-11T04:06:42;6.40;99.90
39219;DHT22;24934;52.752;6.964;2023-02-11T04:09:09;6.40;99.90
39219;DHT22;24934;52.752;6.964;2023-02-11T04:11:37;6.40;99.90
39219;DHT22;24934;52.752;6.964;2023-02-11T04:14:03;6.40;99.90
39219;DHT22;24934;52.752;6.964;2023-02-11T04:16:29;6.50;99.90
39219;DHT22;24934;52.752;6.964;2023-02-11T04:18:56;6.50;99.90
39219;DHT22;24934;52.752;6.964;2023-02-11T04:21:21;6.50;99.90
39219;DHT22;24934;52.752;6.964;2023-02-11T04:23:47;6.50;99.90
39219;DHT22;24934;52.752;6.964;2023-02-11T04:26:13;6.50;99.90
39219;DHT22;24934;52.752;6.964;2023-02-11T04:28:41;6.40;99.90
39219;DHT22;24934;52.752;6.964;2023-02-11T04:31:07;6.50;99.90
39219;DHT22;24934;52.752;6.964;2023-02-11T04:33:33;6.50;99.90
39219;DHT22;24934;52.752;6.964;2023-02-11T04:35:58;6.50;99.90
39219;DHT22;24934;52.752;6.964;2023-02-11T04:38:24;6.50;99.90
39219;DHT22;24934;52.752;6.964;2023-02-11T04:40:50;6.50;99.90
39219;DHT22;24934;52.752;6.964;2023-02-11T04:43:15;6.50;99.90
39219;DHT22;24934;52.752;6.964;2023-02-11T04:45:41;6.50;99.90
39219;DHT22;24934;52.752;6.964;2023-02-11T04:48:06;6.50;99.90
39219;DHT22;24934;52.752;6.964;2023-02-11T04:50:32;6.50;99.90
39219;DHT22;24934;52.752;6.964;2023-02-11T04:52:58;6.50;99.90
39219;DHT22;24934;52.752;6.964;2023-02-11T04:55:23;6.50;99.90
39219;DHT22;24934;52.752;6.964;2023-02-11T04:57:49;6.50;99.90
39219;DHT22;24934;52.752;6.964;2023-02-11T05:00:15;6.50;99.90
39219;DHT22;24934;52.752;6.964;2023-02-11T05:02:41;6.50;99.90
39219;DHT22;24934;52.752;6.964;2023-02-11T05:05:06;6.50;99.90
39219;DHT22;24934;52.752;6.964;2023-02-11T05:07:34;6.50;99.90
39219;DHT22;24934;52.752;6.964;2023-02-11T05:10:00;6.60;99.90
39219;DHT22;24934;52.752;6.964;2023-02-11T05:12:25;6.60;99.90
39219;DHT22;24934;52.752;6.964;2023-02-11T05:14:51;6.60;99.90
39219;DHT22;24934;52.752;6.964;2023-02-11T05:17:17;6.60;99.90
39219;DHT22;24934;52.752;6.964;2023-02-11T05:19:42;6.60;99.90
39219;DHT22;24934;52.752;6.964;2023-02-11T05:22:08;6.60;99.90
39219;DHT22;24934;52.752;6.964;2023-02-11T05:24:34;6.60;99.90
39219;DHT22;24934;52.752;6.964;2023-02-11T05:27:02;6.60;99.90
39219;DHT22;24934;52.752;6.964;2023-02-11T05:29:28;6.60;99.90
39219;DHT22;24934;52.752;6.964;2023-02-11T05:31:54;6.60;99.90
39219;DHT22;24934;52.752;6.964;2023-02-11T05:34:19;6.60;99.90
39219;DHT22;24934;52.752;6.964;2023-02-11T05:36:45;6.60;99.90
39219;DHT22;24934;52.752;6.964;2023-02-11T05:39:10;6.60;99.90
39219;DHT22;24934;52.752;6.964;2023-02-11T05:41:36;6.60;99.90
39219;DHT22;24934;52.752;6.964;2023-02-11T05:44:02;6.70;99.90
39219;DHT22;24934;52.752;6.964;2023-02-11T05:46:28;6.70;99.90
39219;DHT22;24934;52.752;6.964;2023-02-11T05:48:54;6.70;99.90
39219;DHT22;24934;52.752;6.964;2023-02-11T05:51:21;6.70;99.90
39219;DHT22;24934;52.752;6.964;2023-02-11T05:53:46;6.70;99.90
39219;DHT22;24934;52.752;6.964;2023-02-11T05:56:12;6.70;99.90
39219;DHT22;24934;52.752;6.964;2023-02-11T05:58:39;6.70;99.90
39219;DHT22;24934;52.752;6.964;2023-02-11T06:01:04;6.70;99.90
39219;DHT22;24934;52.752;6.964;2023-02-11T06:03:30;6.70;99.90
39219;DHT22;24934;52.752;6.964;2023-02-11T06:05:56;6.70;99.90
39219;DHT22;24934;52.752;6.964;2023-02-11T06:08:21;6.70;99.90
39219;DHT22;24934;52.752;6.964;2023-02-11T06:10:47;6.70;99.90
39219;DHT22;24934;52.752;6.964;2023-02-11T06:13:13;6.70;99.90
39219;DHT22;24934;52.752;6.964;2023-02-11T06:15:53;6.70;99.90
39219;DHT22;24934;52.752;6.964;2023-02-11T06:18:19;6.70;99.90
39219;DHT22;24934;52.752;6.964;2023-02-11T06:20:45;6.70;99.90
39219;DHT22;24934;52.752;6.964;2023-02-11T06:23:10;6.70;99.90
39219;DHT22;24934;52.752;6.964;2023-02-11T06:25:36;6.70;99.90
39219;DHT22;24934;52.752;6.964;2023-02-11T06:28:02;6.70;99.90
39219;DHT22;24934;52.752;6.964;2023-02-11T06:30:27;6.70;99.90
39219;DHT22;24934;52.752;6.964;2023-02-11T06:32:53;6.70;99.90
39219;DHT22;24934;52.752;6.964;2023-02-11T06:35:19;6.70;99.90
39219;DHT22;24934;52.752;6.964;2023-02-11T06:37:44;6.70;99.90
39219;DHT22;24934;52.752;6.964;2023-02-11T06:40:14;6.70;99.90
39219;DHT22;24934;52.752;6.964;2023-02-11T06:42:42;6.70;99.90
39219;DHT22;24934;52.752;6.964;2023-02-11T06:45:08;6.70;99.90
39219;DHT22;24934;52.752;6.964;2023-02-11T06:47:35;6.70;99.90
39219;DHT22;24934;52.752;6.964;2023-02-11T06:50:01;6.70;99.90
39219;DHT22;24934;52.752;6.964;2023-02-11T06:52:27;6.70;99.90
39219;DHT22;24934;52.752;6.964;2023-02-11T06:54:53;6.70;99.90
39219;DHT22;24934;52.752;6.964;2023-02-11T06:57:18;6.70;99.90
39219;DHT22;24934;52.752;6.964;2023-02-11T06:59:44;6.70;99.90
39219;DHT22;24934;52.752;6.964;2023-02-11T07:02:10;6.70;99.90
39219;DHT22;24934;52.752;6.964;2023-02-11T07:04:41;6.70;99.90
39219;DHT22;24934;52.752;6.964;2023-02-11T07:07:07;6.70;99.90
39219;DHT22;24934;52.752;6.964;2023-02-11T07:09:32;6.70;99.90
39219;DHT22;24934;52.752;6.964;2023-02-11T07:11:58;6.70;99.90
39219;DHT22;24934;52.752;6.964;2023-02-11T07:14:24;6.70;99.90
39219;DHT22;24934;52.752;6.964;2023-02-11T07:16:49;6.70;99.90
39219;DHT22;24934;52.752;6.964;2023-02-11T07:19:15;6.70;99.90
39219;DHT22;24934;52.752;6.964;2023-02-11T07:21:41;6.80;99.90
39219;DHT22;24934;52.752;6.964;2023-02-11T07:24:10;6.80;99.90
39219;DHT22;24934;52.752;6.964;2023-02-11T07:26:36;6.80;99.90
39219;DHT22;24934;52.752;6.964;2023-02-11T07:29:02;6.80;99.90
39219;DHT22;24934;52.752;6.964;2023-02-11T07:31:29;6.80;99.90
39219;DHT22;24934;52.752;6.964;2023-02-11T07:33:57;6.80;99.90
39219;DHT22;24934;52.752;6.964;2023-02-11T07:36:25;6.90;99.90
39219;DHT22;24934;52.752;6.964;2023-02-11T07:38:53;6.90;99.90
39219;DHT22;24934;52.752;6.964;2023-02-11T07:41:22;6.90;99.90
39219;DHT22;24934;52.752;6.964;2023-02-11T07:43:48;7.00;99.90
39219;DHT22;24934;52.752;6.964;2023-02-11T07:46:16;7.00;99.90
39219;DHT22;24934;52.752;6.964;2023-02-11T07:48:42;7.00;99.90
39219;DHT22;24934;52.752;6.964;2023-02-11T07:51:16;7.00;99.90
39219;DHT22;24934;52.752;6.964;2023-02-11T07:53:42;7.10;99.90
39219;DHT22;24934;52.752;6.964;2023-02-11T07:56:08;7.10;99.90
39219;DHT22;24934;52.752;6.964;2023-02-11T07:58:35;7.10;99.90
39219;DHT22;24934;52.752;6.964;2023-02-11T08:01:10;7.10;99.90
39219;DHT22;24934;52.752;6.964;2023-02-11T08:03:37;7.20;99.90
39219;DHT22;24934;52.752;6.964;2023-02-11T08:06:14;7.20;99.90
39219;DHT22;24934;52.752;6.964;2023-02-11T08:08:42;7.20;99.90
39219;DHT22;24934;52.752;6.964;2023-02-11T08:11:14;7.20;99.90
39219;DHT22;24934;52.752;6.964;2023-02-11T08:13:40;7.20;99.90
39219;DHT22;24934;52.752;6.964;2023-02-11T08:16:06;7.30;99.90
39219;DHT22;24934;52.752;6.964;2023-02-11T08:18:33;7.30;99.90
39219;DHT22;24934;52.752;6.964;2023-02-11T08:21:07;7.30;99.90
39219;DHT22;24934;52.752;6.964;2023-02-11T08:23:34;7.30;99.90
39219;DHT22;24934;52.752;6.964;2023-02-11T08:26:04;7.40;99.90
39219;DHT22;24934;52.752;6.964;2023-02-11T08:28:33;7.40;99.90
39219;DHT22;24934;52.752;6.964;2023-02-11T08:33:39;7.40;99.90
39219;DHT22;24934;52.752;6.964;2023-02-11T08:36:10;7.40;99.90
39219;DHT22;24934;52.752;6.964;2023-02-11T08:38:36;7.50;99.90
39219;DHT22;24934;52.752;6.964;2023-02-11T08:41:03;7.40;99.90
39219;DHT22;24934;52.752;6.964;2023-02-11T08:43:29;7.50;99.90
39219;DHT22;24934;52.752;6.964;2023-02-11T08:45:54;7.50;99.90
39219;DHT22;24934;52.752;6.964;2023-02-11T08:48:23;7.50;99.90
39219;DHT22;24934;52.752;6.964;2023-02-11T08:50:48;7.50;99.90
39219;DHT22;24934;52.752;6.964;2023-02-11T08:53:14;7.60;99.90
39219;DHT22;24934;52.752;6.964;2023-02-11T08:55:39;7.60;99.90
39219;DHT22;24934;52.752;6.964;2023-02-11T08:58:05;7.60;99.90
39219;DHT22;24934;52.752;6.964;2023-02-11T09:00:31;7.60;99.90
39219;DHT22;24934;52.752;6.964;2023-02-11T09:02:56;7.60;99.90
39219;DHT22;24934;52.752;6.964;2023-02-11T09:05:22;7.60;99.90
39219;DHT22;24934;52.752;6.964;2023-02-11T09:07:48;7.60;99.90
39219;DHT22;24934;52.752;6.964;2023-02-11T09:10:16;7.60;99.90
39219;DHT22;24934;52.752;6.964;2023-02-11T09:12:42;7.60;99.90
39219;DHT22;24934;52.752;6.964;2023-02-11T09:15:08;7.60;99.90
39219;DHT22;24934;52.752;6.964;2023-02-11T09:17:33;7.60;99.90
39219;DHT22;24934;52.752;6.964;2023-02-11T09:19:59;7.70;99.90
39219;DHT22;24934;52.752;6.964;2023-02-11T09:22:25;7.70;99.90
39219;DHT22;24934;52.752;6.964;2023-02-11T09:24:51;7.70;99.90
39219;DHT22;24934;52.752;6.964;2023-02-11T09:27:16;7.70;99.90
39219;DHT22;24934;52.752;6.964;2023-02-11T09:29:42;7.70;99.90
39219;DHT22;24934;52.752;6.964;2023-02-11T09:32:07;7.80;99.90
39219;DHT22;24934;52.752;6.964;2023-02-11T09:34:36;7.80;99.90
39219;DHT22;24934;52.752;6.964;2023-02-11T09:37:02;7.80;99.90
39219;DHT22;24934;52.752;6.964;2023-02-11T09:39:27;7.80;99.90
39219;DHT22;24934;52.752;6.964;2023-02-11T09:42:22;7.80;99.90
39219;DHT22;24934;52.752;6.964;2023-02-11T09:44:54;7.90;99.90
39219;DHT22;24934;52.752;6.964;2023-02-11T09:47:28;7.90;99.90
39219;DHT22;24934;52.752;6.964;2023-02-11T09:50:02;8.00;99.90
39219;DHT22;24934;52.752;6.964;2023-02-11T09:55:01;8.00;99.90
39219;DHT22;24934;52.752;6.964;2023-02-11T09:57:35;8.00;99.90
39219;DHT22;24934;52.752;6.964;2023-02-11T10:00:06;8.10;99.90
39219;DHT22;24934;52.752;6.964;2023-02-11T10:05:39;8.10;99.90
39219;DHT22;24934;52.752;6.964;2023-02-11T10:08:25;8.20;99.90
39219;DHT22;24934;52.752;6.964;2023-02-11T10:10:59;8.20;99.90
39219;DHT22;24934;52.752;6.964;2023-02-11T10:14:11;8.30;99.90
39219;DHT22;24934;52.752;6.964;2023-02-11T10:16:55;8.30;99.90
39219;DHT22;24934;52.752;6.964;2023-02-11T10:24:21;8.50;99.90
39219;DHT22;24934;52.752;6.964;2023-02-11T10:26:47;8.60;99.90
39219;DHT22;24934;52.752;6.964;2023-02-11T10:29:42;8.70;99.90
39219;DHT22;24934;52.752;6.964;2023-02-11T10:32:31;8.70;99.90
39219;DHT22;24934;52.752;6.964;2023-02-11T10:35:03;8.80;99.90
39219;DHT22;24934;52.752;6.964;2023-02-11T10:37:34;8.80;99.90
39219;DHT22;24934;52.752;6.964;2023-02-11T10:39:59;8.80;99.90
39219;DHT22;24934;52.752;6.964;2023-02-11T10:42:26;9.00;99.90
39219;DHT22;24934;52.752;6.964;2023-02-11T10:45:02;9.00;99.90
39219;DHT22;24934;52.752;6.964;2023-02-11T10:47:32;9.00;99.90
39219;DHT22;24934;52.752;6.964;2023-02-11T10:50:29;9.00;99.90
39219;DHT22;24934;52.752;6.964;2023-02-11T10:53:16;9.00;99.90
39219;DHT22;24934;52.752;6.964;2023-02-11T10:56:03;9.00;99.90
39219;DHT22;24934;52.752;6.964;2023-02-11T10:58:36;9.20;99.90
39219;DHT22;24934;52.752;6.964;2023-02-11T11:01:05;9.30;99.90
39219;DHT22;24934;52.752;6.964;2023-02-11T11:03:36;9.50;99.90
39219;DHT22;24934;52.752;6.964;2023-02-11T11:06:05;9.60;99.90
39219;DHT22;24934;52.752;6.964;2023-02-11T11:08:47;9.80;99.90
39219;DHT22;24934;52.752;6.964;2023-02-11T11:11:18;9.90;99.90
39219;DHT22;24934;52.752;6.964;2023-02-11T11:18:46;10.10;99.90
39219;DHT22;24934;52.752;6.964;2023-02-11T11:24:28;10.00;99.90
39219;DHT22;24934;52.752;6.964;2023-02-11T11:27:00;10.00;99.90
39219;DHT22;24934;52.752;6.964;2023-02-11T11:29:41;10.00;99.90
39219;DHT22;24934;52.752;6.964;2023-02-11T11:34:48;9.80;99.90
39219;DHT22;24934;52.752;6.964;2023-02-11T11:37:35;9.80;99.90
39219;DHT22;24934;52.752;6.964;2023-02-11T11:42:42;9.90;99.90
39219;DHT22;24934;52.752;6.964;2023-02-11T11:45:19;9.80;99.90
39219;DHT22;24934;52.752;6.964;2023-02-11T11:53:12;9.50;99.90
39219;DHT22;24934;52.752;6.964;2023-02-11T11:55:44;9.40;99.90
39219;DHT22;24934;52.752;6.964;2023-02-11T11:58:15;9.40;99.90
39219;DHT22;24934;52.752;6.964;2023-02-11T12:01:04;9.30;99.90
39219;DHT22;24934;52.752;6.964;2023-02-11T12:19:48;9.00;99.90
39219;DHT22;24934;52.752;6.964;2023-02-11T12:36:04;9.40;99.90
39219;DHT22;24934;52.752;6.964;2023-02-11T12:50:42;9.70;99.90
39219;DHT22;24934;52.752;6.964;2023-02-11T12:53:45;9.70;99.90
39219;DHT22;24934;52.752;6.964;2023-02-11T12:56:28;9.60;99.90
39219;DHT22;24934;52.752;6.964;2023-02-11T12:58:58;9.60;99.90
39219;DHT22;24934;52.752;6.964;2023-02-11T13:01:34;9.60;99.90
39219;DHT22;24934;52.752;6.964;2023-02-11T13:04:10;9.70;99.90
39219;DHT22;24934;52.752;6.964;2023-02-11T13:06:56;9.70;99.90
39219;DHT22;24934;52.752;6.964;2023-02-11T13:09:51;9.70;99.90
39219;DHT22;24934;52.752;6.964;2023-02-11T13:12:19;9.70;99.90
39219;DHT22;24934;52.752;6.964;2023-02-11T13:15:08;9.60;99.90
39219;DHT22;24934;52.752;6.964;2023-02-11T13:20:42;9.70;99.90
39219;DHT22;24934;52.752;6.964;2023-02-11T13:23:18;9.70;99.90
39219;DHT22;24934;52.752;6.964;2023-02-11T13:28:53;9.70;99.90
39219;DHT22;24934;52.752;6.964;2023-02-11T13:31:21;9.70;99.90
39219;DHT22;24934;52.752;6.964;2023-02-11T13:33:51;9.60;99.90
39219;DHT22;24934;52.752;6.964;2023-02-11T13:36:25;9.70;99.90
39219;DHT22;24934;52.752;6.964;2023-02-11T13:39:04;9.70;99.90
39219;DHT22;24934;52.752;6.964;2023-02-11T13:44:19;9.80;99.90
39219;DHT22;24934;52.752;6.964;2023-02-11T13:49:32;9.80;99.90
39219;DHT22;24934;52.752;6.964;2023-02-11T13:52:02;9.90;99.90
39219;DHT22;24934;52.752;6.964;2023-02-11T13:54:32;9.80;99.90
39219;DHT22;24934;52.752;6.964;2023-02-11T13:59:51;9.80;99.90
39219;DHT22;24934;52.752;6.964;2023-02-11T14:02:26;9.90;99.90
39219;DHT22;24934;52.752;6.964;2023-02-11T14:11:00;10.20;99.90
39219;DHT22;24934;52.752;6.964;2023-02-11T14:14:00;10.20;99.90
39219;DHT22;24934;52.752;6.964;2023-02-11T14:16:21;10.20;99.90
39219;DHT22;24934;52.752;6.964;2023-02-11T14:21:23;10.20;99.90
39219;DHT22;24934;52.752;6.964;2023-02-11T14:29:58;10.30;99.90
39219;DHT22;24934;52.752;6.964;2023-02-11T14:33:11;10.30;99.90
39219;DHT22;24934;52.752;6.964;2023-02-11T14:35:48;10.40;99.90
39219;DHT22;24934;52.752;6.964;2023-02-11T14:38:40;10.40;99.90
39219;DHT22;24934;52.752;6.964;2023-02-11T14:41:22;10.30;99.90
39219;DHT22;24934;52.752;6.964;2023-02-11T14:44:03;10.30;99.90
39219;DHT22;24934;52.752;6.964;2023-02-11T14:46:31;10.30;99.90
39219;DHT22;24934;52.752;6.964;2023-02-11T14:49:00;10.20;99.90
39219;DHT22;24934;52.752;6.964;2023-02-11T14:53:59;10.10;99.90
39219;DHT22;24934;52.752;6.964;2023-02-11T14:56:29;10.00;99.90
39219;DHT22;24934;52.752;6.964;2023-02-11T14:58:59;10.00;99.90
39219;DHT22;24934;52.752;6.964;2023-02-11T15:01:33;10.00;99.90
39219;DHT22;24934;52.752;6.964;2023-02-11T15:04:01;10.00;99.90
39219;DHT22;24934;52.752;6.964;2023-02-11T15:06:29;10.10;99.90
39219;DHT22;24934;52.752;6.964;2023-02-11T15:09:04;10.10;99.90
39219;DHT22;24934;52.752;6.964;2023-02-11T15:11:33;10.10;99.90
39219;DHT22;24934;52.752;6.964;2023-02-11T15:14:10;10.00;99.90
39219;DHT22;24934;52.752;6.964;2023-02-11T15:16:42;10.00;99.90
39219;DHT22;24934;52.752;6.964;2023-02-11T15:19:50;10.00;99.90
39219;DHT22;24934;52.752;6.964;2023-02-11T15:22:18;9.90;99.90
39219;DHT22;24934;52.752;6.964;2023-02-11T15:24:58;9.90;99.90
39219;DHT22;24934;52.752;6.964;2023-02-11T15:27:24;9.80;99.90
39219;DHT22;24934;52.752;6.964;2023-02-11T15:29:50;9.80;99.90
39219;DHT22;24934;52.752;6.964;2023-02-11T15:32:24;9.80;99.90
39219;DHT22;24934;52.752;6.964;2023-02-11T15:34:54;9.70;99.90
39219;DHT22;24934;52.752;6.964;2023-02-11T15:37:27;9.70;99.90
39219;DHT22;24934;52.752;6.964;2023-02-11T15:40:11;9.60;99.90
39219;DHT22;24934;52.752;6.964;2023-02-11T15:42:37;9.60;99.90
39219;DHT22;24934;52.752;6.964;2023-02-11T15:47:52;9.50;99.90
39219;DHT22;24934;52.752;6.964;2023-02-11T15:50:30;9.50;99.90
39219;DHT22;24934;52.752;6.964;2023-02-11T15:52:59;9.40;99.90
39219;DHT22;24934;52.752;6.964;2023-02-11T15:55:26;9.40;99.90
39219;DHT22;24934;52.752;6.964;2023-02-11T15:57:55;9.40;99.90
39219;DHT22;24934;52.752;6.964;2023-02-11T16:00:24;9.40;99.90
39219;DHT22;24934;52.752;6.964;2023-02-11T16:02:50;9.30;99.90
39219;DHT22;24934;52.752;6.964;2023-02-11T16:05:35;9.20;99.90
39219;DHT22;24934;52.752;6.964;2023-02-11T16:11:00;9.20;99.90
39219;DHT22;24934;52.752;6.964;2023-02-11T16:13:31;9.10;99.90
39219;DHT22;24934;52.752;6.964;2023-02-11T16:16:02;9.10;99.90
39219;DHT22;24934;52.752;6.964;2023-02-11T16:18:31;9.10;99.90
39219;DHT22;24934;52.752;6.964;2023-02-11T16:20:58;9.10;99.90
39219;DHT22;24934;52.752;6.964;2023-02-11T16:23:27;9.00;99.90
39219;DHT22;24934;52.752;6.964;2023-02-11T16:26:11;9.00;99.90
39219;DHT22;24934;52.752;6.964;2023-02-11T16:28:44;9.00;99.90
39219;DHT22;24934;52.752;6.964;2023-02-11T16:31:10;8.90;99.90
39219;DHT22;24934;52.752;6.964;2023-02-11T16:33:36;9.00;99.90
39219;DHT22;24934;52.752;6.964;2023-02-11T16:36:12;8.90;99.90
39219;DHT22;24934;52.752;6.964;2023-02-11T16:38:40;8.90;99.90
39219;DHT22;24934;52.752;6.964;2023-02-11T16:41:09;8.80;99.90
39219;DHT22;24934;52.752;6.964;2023-02-11T16:43:38;8.90;99.90
39219;DHT22;24934;52.752;6.964;2023-02-11T16:46:04;8.90;99.90
39219;DHT22;24934;52.752;6.964;2023-02-11T16:48:31;8.80;99.90
39219;DHT22;24934;52.752;6.964;2023-02-11T16:50:57;8.80;99.90
39219;DHT22;24934;52.752;6.964;2023-02-11T16:53:23;8.80;99.90
39219;DHT22;24934;52.752;6.964;2023-02-11T16:55:53;8.80;99.90
39219;DHT22;24934;52.752;6.964;2023-02-11T16:58:18;8.80;99.90
39219;DHT22;24934;52.752;6.964;2023-02-11T17:00:46;8.70;99.90
39219;DHT22;24934;52.752;6.964;2023-02-11T17:03:20;8.70;99.90
39219;DHT22;24934;52.752;6.964;2023-02-11T17:05:49;8.60;99.90
39219;DHT22;24934;52.752;6.964;2023-02-11T17:08:15;8.60;99.90
39219;DHT22;24934;52.752;6.964;2023-02-11T17:10:44;8.60;99.90
39219;DHT22;24934;52.752;6.964;2023-02-11T17:13:10;8.60;99.90
39219;DHT22;24934;52.752;6.964;2023-02-11T17:15:35;8.50;99.90
39219;DHT22;24934;52.752;6.964;2023-02-11T17:18:01;8.50;99.90
39219;DHT22;24934;52.752;6.964;2023-02-11T17:20:27;8.50;99.90
39219;DHT22;24934;52.752;6.964;2023-02-11T17:22:53;8.40;99.90
39219;DHT22;24934;52.752;6.964;2023-02-11T17:25:18;8.40;99.90
39219;DHT22;24934;52.752;6.964;2023-02-11T17:27:44;8.40;99.90
39219;DHT22;24934;52.752;6.964;2023-02-11T17:30:12;8.40;99.90
39219;DHT22;24934;52.752;6.964;2023-02-11T17:32:38;8.40;99.90
39219;DHT22;24934;52.752;6.964;2023-02-11T17:35:04;8.30;99.90
39219;DHT22;24934;52.752;6.964;2023-02-11T17:37:31;8.30;99.90
39219;DHT22;24934;52.752;6.964;2023-02-11T17:39:57;8.30;99.90
39219;DHT22;24934;52.752;6.964;2023-02-11T17:42:22;8.30;99.90
39219;DHT22;24934;52.752;6.964;2023-02-11T17:44:48;8.30;99.90
39219;DHT22;24934;52.752;6.964;2023-02-11T17:47:14;8.30;99.90
39219;DHT22;24934;52.752;6.964;2023-02-11T17:49:39;8.30;99.90
39219;DHT22;24934;52.752;6.964;2023-02-11T17:52:05;8.30;99.90
39219;DHT22;24934;52.752;6.964;2023-02-11T17:54:31;8.20;99.90
39219;DHT22;24934;52.752;6.964;2023-02-11T17:56:56;8.20;99.90
39219;DHT22;24934;52.752;6.964;2023-02-11T17:59:22;8.20;99.90
39219;DHT22;24934;52.752;6.964;2023-02-11T18:01:49;8.20;99.90
39219;DHT22;24934;52.752;6.964;2023-02-11T18:04:17;8.20;99.90
39219;DHT22;24934;52.752;6.964;2023-02-11T18:06:43;8.20;99.90
39219;DHT22;24934;52.752;6.964;2023-02-11T18:09:09;8.10;99.90
39219;DHT22;24934;52.752;6.964;2023-02-11T18:11:37;8.10;99.90
39219;DHT22;24934;52.752;6.964;2023-02-11T18:14:04;8.10;99.90
39219;DHT22;24934;52.752;6.964;2023-02-11T18:16:32;8.10;99.90
39219;DHT22;24934;52.752;6.964;2023-02-11T18:19:02;8.00;99.90
39219;DHT22;24934;52.752;6.964;2023-02-11T18:21:27;8.00;99.90
39219;DHT22;24934;52.752;6.964;2023-02-11T18:23:53;8.00;99.90
39219;DHT22;24934;52.752;6.964;2023-02-11T18:26:21;8.00;99.90